map of AMS home
AMS - Airport
Location
City:  Amsterdam, Noord-Holland (North Holland), Netherlands
Name:Schiphol
ICAO:EHAM
IATA:AMS

Details
Type:Airport (Aerodrome, Airfield)
Use:Public/Civil, International (customs port of entry)
Latitude:5218'31"N (52.308613)
Longitude:445'50"E (4.763889)
Datum:WGS 1984
Elevation:-11 ft (-2 m)
Variation:1.20E (WMM2015 magnetic declination)
0.14 annual change
Runways:6
Longest:12467 × 198 ft (3800 × 60.5 m), paved

Time
Time Zone:UTC+1 (DST+2)
Local Time:

Weather
METAR:EHAM 272355Z 08004KT CAVOK 19/16 Q1017 NOSIG
TAF:EHAM 272240Z 2800/2906 10005KT CAVOK
BECMG 2814/2817 03010KT= TAF EHBK 272250Z 2800/2906 09005KT CAVOK PROB30 2800/2806 1400 BCFG PROB30
TEMPO 2814/2822 VRB10G20KT 4000 SHRA TSRA SCT050CB PROB30 2822/2906 1400 BCFG

Related Locations
Nearby:
Farthest:CHT: 11840 mi / 19055 km
Waitangi [Tuuta], CIT, NZ

Find:

   beyond  
but within

Other Information
Maps:
NOTAMs:
Links:
Sources:

  
flag of Netherlands
flag of Noord-Holland (North Holland)
flag of Amsterdam
  

Airport Diagram

Airport diagram for AMS

Larger airport diagram (OBSOLETE) from NGA

Sectional Chart

Flight Planning
at skyvector.com

Satellite Image

Google Maps Satellite view

 

Copyright © 2004-2018 Karl L. Swartz. All rights reserved.
The Great Circle Mapper name and logo are trademarks of the Great Circle Mapper.
All other trademarks mentioned herein belong to their respective owners.
Please see credits for attibutions and further copyright information.

  Follow gcmap on Facebook Follow gcmap on Twitter Follow gcmap on Google+ GCmap on LinkedIn

hCard Microformat

Geo Microformat